createdAt,value
2023-05-01T00:00:48.868Z,0
2023-05-01T00:01:48.860Z,0
2023-05-01T00:02:48.954Z,0
2023-05-01T00:03:49.107Z,0
2023-05-01T00:04:48.912Z,0
2023-05-01T00:05:48.865Z,0
2023-05-01T00:06:48.882Z,0
2023-05-01T00:07:48.879Z,0
2023-05-01T00:08:48.869Z,0
2023-05-01T00:09:48.871Z,0
2023-05-01T00:10:48.872Z,0
2023-05-01T00:11:48.866Z,0
2023-05-01T00:12:48.874Z,0
2023-05-01T00:13:48.879Z,0
2023-05-01T00:14:48.869Z,0
2023-05-01T00:15:48.866Z,0
2023-05-01T00:16:48.961Z,0
2023-05-01T00:17:48.901Z,0
2023-05-01T00:18:48.872Z,0
2023-05-01T00:19:48.880Z,0
2023-05-01T00:20:48.868Z,0
2023-05-01T00:21:48.917Z,0
2023-05-01T00:22:48.874Z,0
2023-05-01T00:23:48.869Z,0
2023-05-01T00:24:48.886Z,0
2023-05-01T00:25:48.869Z,0
2023-05-01T00:26:48.865Z,0
2023-05-01T00:27:48.864Z,0
2023-05-01T00:28:48.863Z,0
2023-05-01T00:29:48.880Z,0
2023-05-01T00:30:48.857Z,0
2023-05-01T00:31:48.930Z,0
2023-05-01T00:32:48.919Z,0
2023-05-01T00:33:48.869Z,0
2023-05-01T00:34:48.870Z,0
2023-05-01T00:35:48.869Z,0
2023-05-01T00:36:49.837Z,0
2023-05-01T00:37:48.875Z,0
2023-05-01T00:38:48.878Z,0
2023-05-01T00:39:48.884Z,0
2023-05-01T00:40:48.856Z,0
2023-05-01T00:41:48.865Z,0
2023-05-01T00:42:48.875Z,0
2023-05-01T00:43:48.920Z,0
2023-05-01T00:44:48.875Z,0
2023-05-01T00:45:48.911Z,0
2023-05-01T00:46:48.875Z,0
2023-05-01T00:47:48.914Z,0
2023-05-01T00:48:48.866Z,0
2023-05-01T00:49:48.893Z,0
2023-05-01T00:50:48.875Z,0
2023-05-01T00:51:48.869Z,0
2023-05-01T00:52:48.860Z,0
2023-05-01T00:53:48.878Z,0
2023-05-01T00:54:48.879Z,0
2023-05-01T00:55:48.873Z,0
2023-05-01T00:56:48.870Z,0
2023-05-01T00:57:48.864Z,0
2023-05-01T00:58:48.871Z,0
2023-05-01T00:59:48.870Z,0
2023-05-01T01:00:48.913Z,0
2023-05-01T01:01:48.864Z,0
2023-05-01T01:02:48.898Z,0
2023-05-01T01:03:48.871Z,0
2023-05-01T01:04:49.008Z,0
2023-05-01T01:05:48.873Z,0
2023-05-01T01:06:49.104Z,0
2023-05-01T01:07:48.857Z,0
2023-05-01T01:08:48.881Z,0
2023-05-01T01:09:48.879Z,0
2023-05-01T01:10:48.884Z,0
2023-05-01T01:11:48.864Z,0
2023-05-01T01:12:48.863Z,0
2023-05-01T01:13:48.863Z,0
2023-05-01T01:14:48.881Z,0
2023-05-01T01:15:48.866Z,0
2023-05-01T01:16:48.928Z,0
2023-05-01T01:17:48.895Z,0
2023-05-01T01:18:48.874Z,0
2023-05-01T01:19:48.868Z,0
2023-05-01T01:20:48.869Z,0
2023-05-01T01:21:48.862Z,0
2023-05-01T01:22:48.862Z,0
2023-05-01T01:23:48.876Z,0
2023-05-01T01:24:48.873Z,0
2023-05-01T01:25:48.873Z,0
2023-05-01T01:26:48.854Z,0
2023-05-01T01:27:48.866Z,0
2023-05-01T01:28:48.880Z,0
2023-05-01T01:29:48.882Z,0
2023-05-01T01:30:48.926Z,0
2023-05-01T01:31:48.873Z,0
2023-05-01T01:32:48.931Z,0
2023-05-01T01:33:48.869Z,0
2023-05-01T01:34:48.875Z,0
2023-05-01T01:35:48.860Z,0
2023-05-01T01:36:48.871Z,0
2023-05-01T01:37:48.865Z,0
2023-05-01T01:38:48.883Z,0
2023-05-01T01:39:48.889Z,0
2023-05-01T01:40:48.868Z,0
2023-05-01T01:41:48.864Z,0
2023-05-01T01:42:48.869Z,0
2023-05-01T01:43:48.869Z,0
2023-05-01T01:44:48.891Z,0
2023-05-01T01:45:48.884Z,0
2023-05-01T01:46:48.929Z,0
2023-05-01T01:47:48.915Z,0
2023-05-01T01:48:48.864Z,0
2023-05-01T01:49:48.873Z,0
2023-05-01T01:50:48.869Z,0
2023-05-01T01:51:48.889Z,0
2023-05-01T01:52:48.862Z,0
2023-05-01T01:53:48.879Z,0
2023-05-01T01:54:48.867Z,0
2023-05-01T01:55:48.864Z,0
2023-05-01T01:56:48.859Z,0
2023-05-01T01:57:48.875Z,0
2023-05-01T01:58:48.865Z,0
2023-05-01T01:59:48.892Z,0
2023-05-01T02:00:48.862Z,0
2023-05-01T02:01:48.897Z,0
2023-05-01T02:02:48.984Z,0
2023-05-01T02:03:49.149Z,0
2023-05-01T02:04:48.866Z,0
2023-05-01T02:05:48.865Z,0
2023-05-01T02:06:48.987Z,0
2023-05-01T02:07:48.865Z,0
2023-05-01T02:08:48.893Z,0
2023-05-01T02:09:48.872Z,0
2023-05-01T02:10:48.868Z,0
2023-05-01T02:11:48.865Z,0
2023-05-01T02:12:48.867Z,0
2023-05-01T02:13:48.860Z,0
2023-05-01T02:14:48.875Z,0
2023-05-01T02:15:48.941Z,0
2023-05-01T02:16:48.871Z,0
2023-05-01T02:17:48.916Z,0
2023-05-01T02:18:48.866Z,0
2023-05-01T02:19:48.875Z,0
2023-05-01T02:20:48.873Z,0
2023-05-01T02:21:48.858Z,0
2023-05-01T02:22:48.873Z,0
2023-05-01T02:23:48.879Z,0
2023-05-01T02:24:48.878Z,0
2023-05-01T02:25:48.867Z,0
2023-05-01T02:26:48.874Z,0
2023-05-01T02:27:48.896Z,0
2023-05-01T02:28:48.864Z,0
2023-05-01T02:29:48.880Z,0
2023-05-01T02:30:48.870Z,0
2023-05-01T02:31:48.953Z,0
2023-05-01T02:32:48.937Z,0
2023-05-01T02:33:48.865Z,0
2023-05-01T02:34:48.902Z,0
2023-05-01T02:35:48.880Z,0
2023-05-01T02:36:48.872Z,0
2023-05-01T02:37:48.883Z,0
2023-05-01T02:38:48.898Z,0
2023-05-01T02:39:48.871Z,0
2023-05-01T02:40:48.874Z,0
2023-05-01T02:41:48.866Z,0
2023-05-01T02:42:48.869Z,0
2023-05-01T02:43:48.870Z,0
2023-05-01T02:44:48.878Z,0
2023-05-01T02:45:48.877Z,0
2023-05-01T02:46:48.880Z,0
2023-05-01T02:47:48.911Z,0
2023-05-01T02:48:48.863Z,0
2023-05-01T02:49:48.877Z,0
2023-05-01T02:50:48.865Z,0
2023-05-01T02:51:48.866Z,0
2023-05-01T02:52:48.861Z,0
2023-05-01T02:53:48.885Z,0
2023-05-01T02:54:48.864Z,0
2023-05-01T02:55:48.865Z,0
2023-05-01T02:56:48.863Z,0
2023-05-01T02:57:48.878Z,0
2023-05-01T02:58:48.873Z,0
2023-05-01T02:59:48.885Z,0
2023-05-01T03:00:48.899Z,0
2023-05-01T03:01:49.021Z,0
2023-05-01T03:02:48.880Z,0
2023-05-01T03:03:49.009Z,0
2023-05-01T03:04:49.046Z,0
2023-05-01T03:05:48.867Z,0
2023-05-01T03:06:48.924Z,0
2023-05-01T03:07:48.867Z,0
2023-05-01T03:08:48.881Z,0
2023-05-01T03:09:48.876Z,0
2023-05-01T03:10:48.867Z,0
2023-05-01T03:11:48.875Z,0
2023-05-01T03:12:48.865Z,0
2023-05-01T03:13:48.873Z,0
2023-05-01T03:14:48.879Z,0
2023-05-01T03:15:48.878Z,0
2023-05-01T03:16:48.910Z,0
2023-05-01T03:17:48.912Z,0
2023-05-01T03:18:48.873Z,0
2023-05-01T03:19:48.884Z,0
2023-05-01T03:20:48.863Z,0
2023-05-01T03:21:48.918Z,0.01
2023-05-01T03:22:48.870Z,0.01
2023-05-01T03:23:48.886Z,0.01
2023-05-01T03:24:48.870Z,0.01
2023-05-01T03:25:48.867Z,0.01
2023-05-01T03:26:48.935Z,0.01
2023-05-01T03:27:48.875Z,0.02
2023-05-01T03:28:48.876Z,0.02
2023-05-01T03:29:48.880Z,0.02
2023-05-01T03:30:48.888Z,0.02
2023-05-01T03:31:48.966Z,0.03
2023-05-01T03:32:48.975Z,0.03
2023-05-01T03:33:48.963Z,0.03
2023-05-01T03:34:48.875Z,0.03
2023-05-01T03:35:49.087Z,0.04
2023-05-01T03:36:48.878Z,0.04
2023-05-01T03:37:48.917Z,0.04
2023-05-01T03:38:48.909Z,0.05
2023-05-01T03:39:48.960Z,0.05
2023-05-01T03:40:48.948Z,0.05
2023-05-01T03:41:48.924Z,0.06
2023-05-01T03:42:48.904Z,0.06
2023-05-01T03:43:48.867Z,0.07
2023-05-01T03:44:48.991Z,0.07
2023-05-01T03:45:48.908Z,0.08
2023-05-01T03:46:48.875Z,0.09
2023-05-01T03:47:48.925Z,0.09
2023-05-01T03:48:48.878Z,0.1
2023-05-01T03:49:48.881Z,0.11
2023-05-01T03:50:48.862Z,0.11
2023-05-01T03:51:48.870Z,0.12
2023-05-01T03:52:48.861Z,0.13
2023-05-01T03:53:48.881Z,0.14
2023-05-01T03:54:48.874Z,0.14
2023-05-01T03:55:48.861Z,0.15
2023-05-01T03:56:48.862Z,0.16
2023-05-01T03:57:48.873Z,0.17
2023-05-01T03:58:48.877Z,0.18
2023-05-01T03:59:48.874Z,0.18
2023-05-01T04:00:48.871Z,0.19
2023-05-01T04:01:48.938Z,0.2
2023-05-01T04:02:49.113Z,0.2
2023-05-01T04:03:48.940Z,0.2
2023-05-01T04:04:48.876Z,0.21
2023-05-01T04:05:48.882Z,0.22
2023-05-01T04:06:48.911Z,0.22
2023-05-01T04:07:48.868Z,0.23
2023-05-01T04:08:48.880Z,0.23
2023-05-01T04:09:48.882Z,0.24
2023-05-01T04:10:48.877Z,0.25
2023-05-01T04:11:48.872Z,0.27
2023-05-01T04:12:48.875Z,0.28
2023-05-01T04:13:48.886Z,0.29
2023-05-01T04:14:48.883Z,0.29
2023-05-01T04:15:48.943Z,0.29
2023-05-01T04:16:48.873Z,0.3
2023-05-01T04:17:48.934Z,0.3
2023-05-01T04:18:48.908Z,0.3
2023-05-01T04:19:48.867Z,0.31
2023-05-01T04:20:48.866Z,0.31
2023-05-01T04:21:48.861Z,0.31
2023-05-01T04:22:48.864Z,0.32
2023-05-01T04:23:48.886Z,0.33
2023-05-01T04:24:48.881Z,0.34
2023-05-01T04:25:48.886Z,0.35
2023-05-01T04:26:48.875Z,0.35
2023-05-01T04:27:48.898Z,0.36
2023-05-01T04:28:48.869Z,0.38
2023-05-01T04:29:48.879Z,0.39
2023-05-01T04:30:48.911Z,0.41
2023-05-01T04:31:48.905Z,0.43
2023-05-01T04:32:49.003Z,0.44
2023-05-01T04:33:48.865Z,0.46
2023-05-01T04:34:48.886Z,0.46
2023-05-01T04:35:48.864Z,0.47
2023-05-01T04:36:48.877Z,0.48
2023-05-01T04:37:48.865Z,0.49
2023-05-01T04:38:48.886Z,0.49
2023-05-01T04:39:48.865Z,0.5
2023-05-01T04:40:48.871Z,0.52
2023-05-01T04:41:48.893Z,0.52
2023-05-01T04:42:48.869Z,0.53
2023-05-01T04:43:48.873Z,0.54
2023-05-01T04:44:48.869Z,0.54
2023-05-01T04:45:48.859Z,0.55
2023-05-01T04:46:48.899Z,0.56
2023-05-01T04:47:48.901Z,0.56
2023-05-01T04:48:48.885Z,0.57
2023-05-01T04:49:48.864Z,0.58
2023-05-01T04:50:48.867Z,0.58
2023-05-01T04:51:48.869Z,0.6
2023-05-01T04:52:48.859Z,0.61
2023-05-01T04:53:48.875Z,0.62
2023-05-01T04:54:48.877Z,0.63
2023-05-01T04:55:48.868Z,0.64
2023-05-01T04:56:48.866Z,0.65
2023-05-01T04:57:48.875Z,0.65
2023-05-01T04:58:48.879Z,0.66
2023-05-01T04:59:48.872Z,0.66
2023-05-01T05:00:48.872Z,0.67
2023-05-01T05:01:48.888Z,0.68
2023-05-01T05:02:48.937Z,0.68
2023-05-01T05:03:50.259Z,0.68
2023-05-01T05:04:48.876Z,0.71
2023-05-01T05:05:48.869Z,0.73
2023-05-01T05:06:49.005Z,0.73
2023-05-01T05:07:48.874Z,0.75
2023-05-01T05:08:48.882Z,0.76
2023-05-01T05:09:48.869Z,0.77
2023-05-01T05:10:48.876Z,0.78
2023-05-01T05:11:48.874Z,0.79
2023-05-01T05:12:48.873Z,0.8
2023-05-01T05:13:48.871Z,0.81
2023-05-01T05:14:48.878Z,0.82
2023-05-01T05:15:48.866Z,0.82
2023-05-01T05:16:49.023Z,0.83
2023-05-01T05:17:48.936Z,0.83
2023-05-01T05:18:48.876Z,0.84
2023-05-01T05:19:48.879Z,0.85
2023-05-01T05:20:48.868Z,0.86
2023-05-01T05:21:48.862Z,0.86
2023-05-01T05:22:48.865Z,0.88
2023-05-01T05:23:48.883Z,0.89
2023-05-01T05:24:48.873Z,0.9
2023-05-01T05:25:48.870Z,0.91
2023-05-01T05:26:48.870Z,0.92
2023-05-01T05:27:48.865Z,0.94
2023-05-01T05:28:48.869Z,0.95
2023-05-01T05:29:48.904Z,0.96
2023-05-01T05:30:48.869Z,0.97
2023-05-01T05:31:48.896Z,0.97
2023-05-01T05:32:48.883Z,0.99
2023-05-01T05:33:48.887Z,0.99
2023-05-01T05:34:48.877Z,0.99
2023-05-01T05:35:48.874Z,1
2023-05-01T05:36:48.867Z,1.01
2023-05-01T05:37:48.869Z,1.02
2023-05-01T05:38:48.885Z,1.02
2023-05-01T05:39:48.877Z,1.01
2023-05-01T05:40:48.871Z,1.01
2023-05-01T05:41:48.870Z,1.02
2023-05-01T05:42:48.870Z,1.02
2023-05-01T05:43:48.873Z,1.02
2023-05-01T05:44:48.868Z,1.03
2023-05-01T05:45:48.924Z,1.03
2023-05-01T05:46:48.876Z,1.04
2023-05-01T05:47:48.911Z,1.03
2023-05-01T05:48:48.868Z,1.03
2023-05-01T05:49:48.880Z,1.04
2023-05-01T05:50:48.855Z,1.04
2023-05-01T05:51:48.868Z,1.05
2023-05-01T05:52:48.865Z,1.04
2023-05-01T05:53:48.897Z,1.03
2023-05-01T05:54:48.879Z,1.03
2023-05-01T05:55:48.863Z,1.02
2023-05-01T05:56:48.870Z,1.02
2023-05-01T05:57:48.868Z,1.04
2023-05-01T05:58:48.868Z,1.05
2023-05-01T05:59:48.883Z,1.06
2023-05-01T06:00:48.876Z,1.06
2023-05-01T06:01:48.862Z,1.06
2023-05-01T06:02:48.992Z,1.06
2023-05-01T06:03:48.905Z,1.06
2023-05-01T06:04:48.877Z,1.06
2023-05-01T06:05:48.938Z,1.06
2023-05-01T06:06:48.980Z,1.06
2023-05-01T06:07:48.887Z,1.08
2023-05-01T06:08:49.036Z,1.07
2023-05-01T06:09:48.879Z,1.07
2023-05-01T06:10:48.870Z,1.07
2023-05-01T06:11:48.871Z,1.06
2023-05-01T06:12:52.021Z,1.05
2023-05-01T06:13:48.870Z,1.04
2023-05-01T06:14:48.885Z,1.04
2023-05-01T06:15:48.952Z,1.05
2023-05-01T06:16:48.872Z,1.05
2023-05-01T06:17:48.897Z,1.07
2023-05-01T06:18:48.874Z,1.09
2023-05-01T06:19:48.887Z,1.09
2023-05-01T06:20:48.872Z,1.11
2023-05-01T06:21:48.882Z,1.13
2023-05-01T06:22:48.874Z,1.15
2023-05-01T06:23:48.885Z,1.17
2023-05-01T06:24:48.881Z,1.21
2023-05-01T06:25:48.883Z,1.23
2023-05-01T06:26:48.868Z,1.28
2023-05-01T06:27:48.875Z,1.31
2023-05-01T06:28:48.874Z,1.32
2023-05-01T06:29:48.875Z,1.33
2023-05-01T06:30:48.873Z,1.35
2023-05-01T06:31:48.888Z,1.37
2023-05-01T06:32:48.949Z,1.39
2023-05-01T06:33:48.864Z,1.4
2023-05-01T06:34:48.879Z,1.42
2023-05-01T06:35:48.869Z,1.43
2023-05-01T06:36:48.862Z,1.45
2023-05-01T06:37:48.861Z,1.47
2023-05-01T06:38:48.976Z,1.48
2023-05-01T06:39:48.871Z,1.48
2023-05-01T06:40:48.861Z,1.5
2023-05-01T06:41:48.869Z,1.52
2023-05-01T06:42:48.878Z,1.56
2023-05-01T06:43:48.863Z,1.77
2023-05-01T06:44:48.863Z,2.81
2023-05-01T06:45:48.879Z,3.75
2023-05-01T06:46:48.926Z,4.05
2023-05-01T06:47:48.888Z,4.23
2023-05-01T06:48:48.862Z,3.5
2023-05-01T06:49:48.873Z,3.29
2023-05-01T06:50:48.869Z,2.38
2023-05-01T06:51:48.871Z,3.69
2023-05-01T06:52:48.873Z,3.15
2023-05-01T06:53:48.889Z,3.34
2023-05-01T06:54:48.872Z,3.38
2023-05-01T06:55:48.861Z,3.61
2023-05-01T06:56:48.871Z,3.29
2023-05-01T06:57:48.858Z,3.68
2023-05-01T06:58:48.866Z,4.35
2023-05-01T06:59:48.875Z,4.69
2023-05-01T07:00:48.874Z,4.25
2023-05-01T07:01:48.875Z,4.82
2023-05-01T07:02:49.041Z,5.12
2023-05-01T07:03:48.879Z,5.12
2023-05-01T07:04:48.871Z,5.51
2023-05-01T07:05:48.877Z,5.92
2023-05-01T07:06:48.904Z,5.58
2023-05-01T07:07:57.936Z,5.39
2023-05-01T07:08:48.886Z,5.32
2023-05-01T07:09:48.873Z,4.68
2023-05-01T07:10:48.870Z,5.01
2023-05-01T07:11:48.865Z,5.79
2023-05-01T07:12:48.879Z,5.93
2023-05-01T07:13:48.875Z,5.59
2023-05-01T07:14:48.879Z,6
2023-05-01T07:15:48.875Z,5.39
2023-05-01T07:16:48.915Z,4.99
2023-05-01T07:17:48.898Z,5.26
2023-05-01T07:18:48.876Z,5.25
2023-05-01T07:19:48.874Z,5.9
2023-05-01T07:20:48.870Z,5.79
2023-05-01T07:21:48.871Z,5.43
2023-05-01T07:22:48.874Z,5.99
2023-05-01T07:23:48.893Z,5.94
2023-05-01T07:24:48.883Z,5.71
2023-05-01T07:25:48.872Z,5.47
2023-05-01T07:26:48.880Z,5.31
2023-05-01T07:27:48.879Z,5.25
2023-05-01T07:28:48.869Z,4.87
2023-05-01T07:29:48.875Z,5.23
2023-05-01T07:30:48.868Z,5.46
2023-05-01T07:31:48.927Z,5.08
2023-05-01T07:32:48.931Z,5.76
2023-05-01T07:33:48.892Z,6.41
2023-05-01T07:34:48.890Z,6.11
2023-05-01T07:35:48.876Z,6.29
2023-05-01T07:36:48.877Z,6.44
2023-05-01T07:37:48.874Z,6.42
2023-05-01T07:38:49.053Z,6.73
2023-05-01T07:39:48.873Z,6.25
2023-05-01T07:40:48.861Z,5.38
2023-05-01T07:41:48.876Z,4.94
2023-05-01T07:42:48.868Z,4.77
2023-05-01T07:43:48.853Z,5.56
2023-05-01T07:44:48.876Z,6.39
2023-05-01T07:45:48.903Z,6.5
2023-05-01T07:46:48.862Z,6.55
2023-05-01T07:47:48.908Z,7.26
2023-05-01T07:48:48.869Z,6.74
2023-05-01T07:49:48.899Z,6.83
2023-05-01T07:50:48.881Z,7.39
2023-05-01T07:51:48.859Z,6.63
2023-05-01T07:52:48.876Z,5.54
2023-05-01T07:53:48.894Z,6.37
2023-05-01T07:54:48.883Z,7.72
2023-05-01T07:55:48.869Z,7.81
2023-05-01T07:56:49.847Z,7.1
2023-05-01T07:57:48.869Z,7.25
2023-05-01T07:58:48.867Z,7.19
2023-05-01T07:59:48.878Z,7.06
2023-05-01T08:00:48.875Z,8.5
2023-05-01T08:01:48.869Z,7.93
2023-05-01T08:02:48.904Z,6.01
2023-05-01T08:03:50.915Z,6.01
2023-05-01T08:04:48.916Z,8.6
2023-05-01T08:05:48.863Z,8.13
2023-05-01T08:06:48.926Z,6.22
2023-05-01T08:07:48.859Z,7.54
2023-05-01T08:08:48.878Z,9.36
2023-05-01T08:09:48.880Z,8.4
2023-05-01T08:10:48.875Z,6.89
2023-05-01T08:11:48.858Z,6.98
2023-05-01T08:12:48.869Z,7.4
2023-05-01T08:13:48.864Z,7.21
2023-05-01T08:14:48.874Z,7.7
2023-05-01T08:15:48.909Z,8.24
2023-05-01T08:16:48.905Z,9.27
2023-05-01T08:17:48.953Z,10.13
2023-05-01T08:18:48.877Z,8.34
2023-05-01T08:19:48.874Z,7.24
2023-05-01T08:20:48.930Z,8.52
2023-05-01T08:21:48.880Z,9.99
2023-05-01T08:22:48.871Z,9.78
2023-05-01T08:23:48.894Z,8.26
2023-05-01T08:24:48.872Z,6.85
2023-05-01T08:25:48.872Z,5.85
2023-05-01T08:26:48.900Z,7.88
2023-05-01T08:27:48.872Z,8.25
2023-05-01T08:28:48.881Z,9.06
2023-05-01T08:29:48.881Z,8.82
2023-05-01T08:30:48.878Z,9.58
2023-05-01T08:31:48.926Z,10.73
2023-05-01T08:32:48.903Z,9.51
2023-05-01T08:33:48.867Z,7.24
2023-05-01T08:34:48.902Z,6.88
2023-05-01T08:35:48.878Z,7.55
2023-05-01T08:36:48.861Z,8.66
2023-05-01T08:37:48.874Z,8.74
2023-05-01T08:38:48.887Z,7.15
2023-05-01T08:39:48.891Z,5.82
2023-05-01T08:40:48.864Z,6.43
2023-05-01T08:41:59.976Z,8.39
2023-05-01T08:42:58.794Z,9.25
2023-05-01T08:43:58.775Z,8.21
2023-05-01T08:44:58.779Z,8.07
2023-05-01T08:45:58.751Z,8.14
2023-05-01T08:47:05.588Z,6.99
2023-05-01T08:48:04.545Z,7.31
2023-05-01T08:49:04.434Z,7.89
2023-05-01T08:50:04.452Z,7.95
2023-05-01T08:51:04.433Z,7.36
2023-05-01T08:52:04.448Z,7.37
2023-05-01T08:53:04.446Z,8.7
2023-05-01T08:54:04.461Z,9.13
2023-05-01T08:55:04.425Z,9.14
2023-05-01T08:56:04.433Z,8.27
2023-05-01T08:57:04.434Z,7.76
2023-05-01T08:58:04.417Z,7.68
2023-05-01T08:59:04.422Z,7.54
2023-05-01T09:00:04.462Z,8.86
2023-05-01T09:01:04.441Z,9.02
2023-05-01T09:02:04.499Z,9.17
2023-05-01T09:03:04.488Z,9.17
2023-05-01T09:04:04.515Z,9.17
2023-05-01T09:05:04.425Z,9.36
2023-05-01T09:06:04.428Z,9.95
2023-05-01T09:07:04.409Z,9.83
2023-05-01T09:08:04.434Z,8.69
2023-05-01T09:09:04.579Z,8.73
2023-05-01T09:10:04.422Z,10.13
2023-05-01T09:11:04.462Z,10.25
2023-05-01T09:12:04.427Z,8.81
2023-05-01T09:13:04.429Z,8.62
2023-05-01T09:14:04.419Z,9.79
2023-05-01T09:15:04.458Z,10.66
2023-05-01T09:16:04.467Z,10.13
2023-05-01T09:17:04.411Z,10.04
2023-05-01T09:18:04.523Z,10.1
2023-05-01T09:19:04.421Z,9.46
2023-05-01T09:20:04.448Z,8.39
2023-05-01T09:21:04.422Z,7.65
2023-05-01T09:22:04.426Z,9.1
2023-05-01T09:23:04.430Z,9.62
2023-05-01T09:24:04.447Z,9.43
2023-05-01T09:25:04.464Z,10.01
2023-05-01T09:26:04.415Z,11.05
2023-05-01T09:27:04.416Z,11.04
2023-05-01T09:28:04.494Z,10.46
2023-05-01T09:29:04.412Z,9.49
2023-05-01T09:30:04.421Z,8.83
2023-05-01T09:31:04.427Z,9.18
2023-05-01T09:32:04.463Z,9.6
2023-05-01T09:33:04.526Z,9.73
2023-05-01T09:34:04.424Z,10.43
2023-05-01T09:35:04.429Z,10.89
2023-05-01T09:36:04.434Z,10.36
2023-05-01T09:37:04.426Z,9.57
2023-05-01T09:38:04.447Z,9.69
2023-05-01T09:39:04.462Z,10.32
2023-05-01T09:40:04.439Z,10.11
2023-05-01T09:41:04.427Z,10.19
2023-05-01T09:42:04.421Z,10.15
2023-05-01T09:43:04.407Z,10.02
2023-05-01T09:44:04.419Z,9.82
2023-05-01T09:45:04.426Z,9.92
2023-05-01T09:46:04.521Z,9.6
2023-05-01T09:47:04.429Z,9.34
2023-05-01T09:48:04.482Z,9.46
2023-05-01T09:49:04.413Z,9.21
2023-05-01T09:50:04.462Z,10.17
2023-05-01T09:51:04.409Z,9.4
2023-05-01T09:52:04.414Z,8.98
2023-05-01T09:53:04.427Z,9.09
2023-05-01T09:54:04.436Z,8.55
2023-05-01T09:55:04.424Z,7.66
2023-05-01T09:56:04.412Z,7.99
2023-05-01T09:57:04.425Z,9.33
2023-05-01T09:58:04.412Z,10.43
2023-05-01T09:59:04.414Z,11.86
2023-05-01T10:00:04.426Z,11.41
2023-05-01T10:01:04.490Z,11.67
2023-05-01T10:02:04.450Z,12.47
2023-05-01T10:03:05.351Z,12.72
2023-05-01T10:04:04.460Z,12.72
2023-05-01T10:05:04.424Z,9.15
2023-05-01T10:06:04.496Z,9.5
2023-05-01T10:07:04.455Z,10.62
2023-05-01T10:08:04.422Z,8.79
2023-05-01T10:09:04.452Z,8.6
2023-05-01T10:10:04.700Z,8.33
2023-05-01T10:11:04.418Z,8.25
2023-05-01T10:12:04.427Z,8.55
2023-05-01T10:13:04.424Z,8.12
2023-05-01T10:14:04.420Z,8.56
2023-05-01T10:15:17.291Z,9.61
2023-05-01T10:16:04.429Z,10.54
2023-05-01T10:17:04.458Z,11.09
2023-05-01T10:18:04.486Z,11.24
2023-05-01T10:19:04.723Z,10.68
2023-05-01T10:20:04.428Z,10.32
2023-05-01T10:21:04.426Z,9.18
2023-05-01T10:22:04.435Z,9.27
2023-05-01T10:23:04.429Z,9.94
2023-05-01T10:24:04.435Z,10.37
2023-05-01T10:25:04.434Z,10.69
2023-05-01T10:26:05.274Z,10.39
2023-05-01T10:27:04.425Z,9.4
2023-05-01T10:28:04.427Z,9
2023-05-01T10:29:04.437Z,8.24
2023-05-01T10:30:04.439Z,9.2
2023-05-01T10:31:04.441Z,8.71
2023-05-01T10:32:04.511Z,8.05
2023-05-01T10:33:04.506Z,8.18
2023-05-01T10:34:04.430Z,8.26
2023-05-01T10:35:04.436Z,8.43
2023-05-01T10:36:04.442Z,8.38
2023-05-01T10:37:04.421Z,8.04
2023-05-01T10:38:04.409Z,7.86
2023-05-01T10:39:04.444Z,7.95
2023-05-01T10:40:04.424Z,7.96
2023-05-01T10:41:04.449Z,7.76
2023-05-01T10:42:04.424Z,7.58
2023-05-01T10:43:04.432Z,8.06
2023-05-01T10:44:04.411Z,8.53
2023-05-01T10:45:04.425Z,8.69
2023-05-01T10:46:04.438Z,9.05
2023-05-01T10:47:04.421Z,8.5
2023-05-01T10:48:04.452Z,8.65
2023-05-01T10:49:04.409Z,8.96
2023-05-01T10:50:04.495Z,9.25
2023-05-01T10:51:04.424Z,9.35
2023-05-01T10:52:04.419Z,9.87
2023-05-01T10:53:04.413Z,10.59
2023-05-01T10:54:04.437Z,11.71
2023-05-01T10:55:04.612Z,12.07
2023-05-01T10:56:04.421Z,11.61
2023-05-01T10:57:04.424Z,10.16
2023-05-01T10:58:04.422Z,8.87
2023-05-01T10:59:04.438Z,8.9
2023-05-01T11:00:04.425Z,10.31
2023-05-01T11:01:04.421Z,10.29
2023-05-01T11:02:04.492Z,9.71
2023-05-01T11:03:04.430Z,10.21
2023-05-01T11:04:04.426Z,10.21
2023-05-01T11:05:04.482Z,10.23
2023-05-01T11:06:04.529Z,9.96
2023-05-01T11:07:04.480Z,9.81
2023-05-01T11:08:04.432Z,10.1
2023-05-01T11:09:04.484Z,10.4
2023-05-01T11:10:04.438Z,10.39
2023-05-01T11:11:04.419Z,9.87
2023-05-01T11:12:04.406Z,8.93
2023-05-01T11:13:04.424Z,8.15
2023-05-01T11:14:04.451Z,8.24
2023-05-01T11:15:04.430Z,8.56
2023-05-01T11:16:04.429Z,7.85
2023-05-01T11:17:04.428Z,7.28
2023-05-01T11:18:04.452Z,7.2
2023-05-01T11:19:04.429Z,7.63
2023-05-01T11:20:04.435Z,8.14
2023-05-01T11:21:04.437Z,8.56
2023-05-01T11:22:04.419Z,8.75
2023-05-01T11:23:04.430Z,8.98
2023-05-01T11:24:04.454Z,9.18
2023-05-01T11:25:04.423Z,8.58
2023-05-01T11:26:04.425Z,8.42
2023-05-01T11:27:04.430Z,8.05
2023-05-01T11:28:04.426Z,8.23
2023-05-01T11:29:04.430Z,7.72
2023-05-01T11:30:04.430Z,7.28
2023-05-01T11:31:04.448Z,7.27
2023-05-01T11:32:04.481Z,7.9
2023-05-01T11:33:04.488Z,8.76
2023-05-01T11:34:04.439Z,9.01
2023-05-01T11:35:04.432Z,8.43
2023-05-01T11:36:04.420Z,8.15
2023-05-01T11:37:04.453Z,8.68
2023-05-01T11:38:04.433Z,8.61
2023-05-01T11:39:04.436Z,9.39
2023-05-01T11:40:04.421Z,9.86
2023-05-01T11:41:04.419Z,9.49
2023-05-01T11:42:04.436Z,9.33
2023-05-01T11:43:04.426Z,9.15
2023-05-01T11:44:04.422Z,8.69
2023-05-01T11:45:04.432Z,7.97
2023-05-01T11:46:04.530Z,7.16
2023-05-01T11:47:04.422Z,7.34
2023-05-01T11:48:05.184Z,7.44
2023-05-01T11:49:04.413Z,8.17
2023-05-01T11:50:04.418Z,8.38
2023-05-01T11:51:04.408Z,7.93
2023-05-01T11:52:04.425Z,7.56
2023-05-01T11:53:04.425Z,7.66
2023-05-01T11:54:04.442Z,8.1
2023-05-01T11:55:04.569Z,8.36
2023-05-01T11:56:13.255Z,8.97
2023-05-01T11:57:04.418Z,9.98
2023-05-01T11:58:04.418Z,10.26
2023-05-01T11:59:04.434Z,9.9
2023-05-01T12:00:04.415Z,9.91
2023-05-01T12:01:04.420Z,8.95
2023-05-01T12:02:04.479Z,7.65
2023-05-01T12:03:04.637Z,7.26
2023-05-01T12:04:04.558Z,7.26
2023-05-01T12:05:04.509Z,8.98
2023-05-01T12:06:04.454Z,9.51
2023-05-01T12:07:04.416Z,9.74
2023-05-01T12:08:04.419Z,9.81
2023-05-01T12:09:04.437Z,9.95
2023-05-01T12:10:04.430Z,10.34
2023-05-01T12:11:04.420Z,10.31
2023-05-01T12:12:04.413Z,10.17
2023-05-01T12:13:04.431Z,9.98
2023-05-01T12:14:04.408Z,10.08
2023-05-01T12:15:04.429Z,9.78
2023-05-01T12:16:04.409Z,8.15
2023-05-01T12:17:04.460Z,6.75
2023-05-01T12:18:04.475Z,6.67
2023-05-01T12:19:04.401Z,7.53
2023-05-01T12:20:04.445Z,9.24
2023-05-01T12:21:04.412Z,9.91
2023-05-01T12:22:04.420Z,9.83
2023-05-01T12:23:04.407Z,10.06
2023-05-01T12:24:50.593Z,8.56
2023-05-01T12:25:49.564Z,6.85
2023-05-01T12:26:49.536Z,6.96
2023-05-01T12:28:31.271Z,8.28
2023-05-01T12:29:30.243Z,7.53
2023-05-01T12:30:30.224Z,6.74
2023-05-01T12:31:30.390Z,7.31
2023-05-01T12:32:30.249Z,8.94
2023-05-01T12:33:30.233Z,10.35
2023-05-01T12:34:30.209Z,9.67
2023-05-01T12:35:30.202Z,7.23
2023-05-01T12:36:30.197Z,6.04
2023-05-01T12:37:30.216Z,7.3
2023-05-01T12:38:30.176Z,9.44
2023-05-01T12:39:30.199Z,10.24
2023-05-01T12:40:30.199Z,9.15
2023-05-01T12:41:30.188Z,7.95
2023-05-01T12:42:30.179Z,7.11
2023-05-01T12:43:30.201Z,6.64
2023-05-01T12:44:30.192Z,8.23
2023-05-01T12:45:30.174Z,10.67
2023-05-01T12:46:30.264Z,10.56
2023-05-01T12:47:30.238Z,8.3
2023-05-01T12:48:30.202Z,8.13
2023-05-01T12:49:30.204Z,9.84
2023-05-01T12:50:30.191Z,10.3
2023-05-01T12:51:30.179Z,9.6
2023-05-01T12:52:30.229Z,8.76
2023-05-01T12:53:30.188Z,9.26
2023-05-01T12:54:30.204Z,9.79
2023-05-01T12:55:30.186Z,9.24
2023-05-01T12:56:30.188Z,8
2023-05-01T12:57:30.182Z,7.08
2023-05-01T12:58:31.237Z,7.18
2023-05-01T12:59:30.200Z,8.27
2023-05-01T13:00:30.177Z,10.1
2023-05-01T13:01:30.178Z,10.66
2023-05-01T13:02:30.224Z,9.41
2023-05-01T13:03:30.272Z,9.41
2023-05-01T13:04:30.557Z,8.62
2023-05-01T13:05:30.179Z,8.99
2023-05-01T13:06:30.260Z,8.03
2023-05-01T13:07:30.193Z,6.63
2023-05-01T13:08:30.208Z,7.47
2023-05-01T13:09:30.215Z,9.91
2023-05-01T13:10:30.178Z,9.67
2023-05-01T13:11:30.183Z,7
2023-05-01T13:12:30.190Z,6.06
2023-05-01T13:13:30.179Z,7.72
2023-05-01T13:14:30.350Z,9.71
2023-05-01T13:15:30.193Z,9.94
2023-05-01T13:16:30.255Z,8.32
2023-05-01T13:17:30.245Z,6.79
2023-05-01T13:18:30.181Z,6.61
2023-05-01T13:19:30.203Z,8.38
2023-05-01T13:20:30.170Z,8.88
2023-05-01T13:21:30.173Z,7.9
2023-05-01T13:22:30.179Z,7.15
2023-05-01T13:23:30.177Z,6.87
2023-05-01T13:24:30.192Z,7.56
2023-05-01T13:25:30.182Z,8.47
2023-05-01T13:26:30.174Z,8.25
2023-05-01T13:27:30.175Z,7.86
2023-05-01T13:28:30.184Z,8.68
2023-05-01T13:29:30.190Z,8.75
2023-05-01T13:30:30.175Z,7.53
2023-05-01T13:31:30.217Z,7
2023-05-01T13:32:30.204Z,7.96
2023-05-01T13:33:30.182Z,7.44
2023-05-01T13:34:30.207Z,7.42
2023-05-01T13:35:30.168Z,8.11
2023-05-01T13:36:30.185Z,6.81
2023-05-01T13:37:30.183Z,4.89
2023-05-01T13:38:30.173Z,4.84
2023-05-01T13:39:30.350Z,7.2
2023-05-01T13:40:30.176Z,9.15